createdAt,value
2022-08-28T00:00:45.081Z,2.60
2022-08-28T00:03:15.872Z,2.73
2022-08-28T00:05:46.642Z,2.40
2022-08-28T00:08:16.743Z,2.70
2022-08-28T00:10:46.060Z,2.60
2022-08-28T00:13:19.004Z,2.83
2022-08-28T00:15:50.478Z,2.63
2022-08-28T00:18:21.147Z,2.80
2022-08-28T00:20:50.264Z,2.87
2022-08-28T00:23:19.100Z,2.70
2022-08-28T00:25:47.409Z,2.40
2022-08-28T00:28:24.310Z,2.90
2022-08-28T00:30:55.256Z,2.73
2022-08-28T00:33:27.435Z,2.70
2022-08-28T00:35:56.107Z,2.90
2022-08-28T00:38:27.215Z,2.83
2022-08-28T00:40:58.580Z,2.73
2022-08-28T00:43:36.170Z,2.70
2022-08-28T00:46:07.229Z,2.77
2022-08-28T00:48:37.432Z,2.60
2022-08-28T00:51:24.164Z,2.43
2022-08-28T00:53:57.992Z,2.37
2022-08-28T00:56:27.984Z,3.07
2022-08-28T00:58:58.100Z,2.60
2022-08-28T01:01:26.684Z,2.70
2022-08-28T01:03:56.407Z,2.57
2022-08-28T01:06:25.045Z,2.47
2022-08-28T01:08:53.968Z,2.97
2022-08-28T01:11:22.480Z,2.43
2022-08-28T01:13:54.578Z,2.50
2022-08-28T01:16:28.359Z,2.27
2022-08-28T01:19:07.937Z,2.57
2022-08-28T01:21:46.531Z,2.70
2022-08-28T01:24:19.806Z,2.70
2022-08-28T01:26:48.486Z,2.77
2022-08-28T01:29:17.533Z,2.90
2022-08-28T01:31:46.035Z,2.90
2022-08-28T01:34:15.067Z,2.27
2022-08-28T01:36:44.212Z,3.10
2022-08-28T01:39:18.102Z,2.80
2022-08-28T01:41:49.027Z,3.00
2022-08-28T01:44:18.349Z,2.63
2022-08-28T01:46:47.585Z,2.60
2022-08-28T01:49:16.002Z,2.40
2022-08-28T01:51:44.864Z,2.50
2022-08-28T01:54:13.975Z,3.00
2022-08-28T01:56:45.952Z,2.60
2022-08-28T01:59:15.673Z,3.10
2022-08-28T02:01:46.032Z,2.83
2022-08-28T02:04:15.094Z,3.20
2022-08-28T02:06:43.516Z,2.87
2022-08-28T02:09:14.598Z,2.67
2022-08-28T02:11:46.793Z,3.40
2022-08-28T02:14:16.436Z,2.70
2022-08-28T02:16:44.640Z,3.03
2022-08-28T02:19:13.399Z,3.20
2022-08-28T02:21:42.172Z,2.70
2022-08-28T02:24:10.697Z,2.63
2022-08-28T02:26:39.849Z,3.00
2022-08-28T02:29:09.677Z,2.67
2022-08-28T02:31:38.349Z,2.90
2022-08-28T02:34:07.105Z,2.90
2022-08-28T02:36:35.365Z,2.63
2022-08-28T02:39:03.663Z,2.97
2022-08-28T02:41:32.470Z,2.97
2022-08-28T02:44:00.793Z,2.87
2022-08-28T02:46:30.631Z,2.60
2022-08-28T02:48:59.036Z,2.83
2022-08-28T02:51:27.500Z,3.20
2022-08-28T02:53:55.757Z,2.67
2022-08-28T02:56:24.869Z,2.80
2022-08-28T02:58:53.927Z,3.23
2022-08-28T03:01:25.521Z,3.30
2022-08-28T03:03:55.160Z,3.00
2022-08-28T03:06:24.026Z,2.60
2022-08-28T03:08:52.288Z,2.80
2022-08-28T03:11:20.604Z,2.93
2022-08-28T03:13:48.831Z,2.50
2022-08-28T03:16:18.014Z,3.47
2022-08-28T03:18:46.283Z,3.00
2022-08-28T03:21:15.969Z,2.50
2022-08-28T03:23:44.257Z,3.07
2022-08-28T03:26:15.047Z,2.77
2022-08-28T03:28:46.635Z,2.77
2022-08-28T03:31:17.972Z,2.63
2022-08-28T03:33:47.403Z,2.83
2022-08-28T03:36:21.495Z,2.93
2022-08-28T03:38:50.328Z,2.83
2022-08-28T03:41:21.161Z,2.73
2022-08-28T03:43:49.585Z,2.83
2022-08-28T03:46:20.453Z,2.70
2022-08-28T03:48:48.920Z,2.93
2022-08-28T03:51:27.102Z,3.30
2022-08-28T03:53:58.219Z,2.63
2022-08-28T03:56:28.164Z,2.67
2022-08-28T03:58:59.105Z,3.00
2022-08-28T04:01:30.915Z,3.00
2022-08-28T04:04:02.228Z,2.90
2022-08-28T04:06:31.947Z,2.97
2022-08-28T04:09:00.560Z,2.67
2022-08-28T04:11:29.042Z,2.97
2022-08-28T04:13:58.037Z,3.23
2022-08-28T04:16:27.199Z,2.90
2022-08-28T04:18:55.503Z,3.43
2022-08-28T04:21:26.187Z,2.80
2022-08-28T04:23:56.877Z,3.30
2022-08-28T04:26:27.759Z,3.03
2022-08-28T04:28:56.342Z,2.70
2022-08-28T04:31:31.211Z,2.80
2022-08-28T04:34:01.126Z,2.50
2022-08-28T04:36:29.490Z,2.90
2022-08-28T04:38:59.855Z,2.80
2022-08-28T04:41:28.836Z,2.80
2022-08-28T04:43:59.397Z,2.97
2022-08-28T04:46:30.983Z,2.73
2022-08-28T04:48:59.887Z,2.50
2022-08-28T04:51:28.654Z,2.63
2022-08-28T04:53:57.256Z,2.83
2022-08-28T04:56:27.015Z,2.63
2022-08-28T04:58:55.539Z,3.23
2022-08-28T05:01:26.173Z,2.70
2022-08-28T05:03:57.748Z,2.67
2022-08-28T05:06:28.620Z,2.43
2022-08-28T05:08:58.774Z,2.50
2022-08-28T05:11:33.434Z,2.87
2022-08-28T05:14:04.498Z,2.77
2022-08-28T05:16:33.628Z,2.60
2022-08-28T05:19:02.618Z,3.10
2022-08-28T05:21:30.887Z,3.17
2022-08-28T05:23:59.695Z,2.60
2022-08-28T05:26:30.179Z,2.90
2022-08-28T05:28:59.350Z,2.70
2022-08-28T05:31:29.989Z,2.63
2022-08-28T05:33:59.383Z,3.00
2022-08-28T05:36:32.827Z,2.50
2022-08-28T05:39:02.596Z,3.13
2022-08-28T05:41:32.885Z,2.90
2022-08-28T05:44:02.601Z,2.90
2022-08-28T05:46:31.527Z,2.80
2022-08-28T05:49:00.581Z,3.00
2022-08-28T05:51:29.725Z,2.57
2022-08-28T05:53:58.518Z,2.50
2022-08-28T05:56:29.872Z,2.73
2022-08-28T05:59:01.499Z,2.80
2022-08-28T06:01:31.357Z,2.53
2022-08-28T06:04:03.282Z,2.80
2022-08-28T06:06:34.514Z,2.77
2022-08-28T06:09:05.626Z,2.40
2022-08-28T06:11:35.375Z,2.50
2022-08-28T06:14:09.536Z,2.97
2022-08-28T06:16:39.881Z,2.90
2022-08-28T06:19:09.353Z,2.83
2022-08-28T06:21:40.705Z,2.50
2022-08-28T06:24:09.829Z,2.30
2022-08-28T06:26:38.271Z,2.37
2022-08-28T06:29:10.099Z,3.00
2022-08-28T06:31:38.930Z,3.23
2022-08-28T06:34:07.634Z,3.73
2022-08-28T06:36:39.158Z,4.50
2022-08-28T06:39:10.631Z,6.03
2022-08-28T06:41:42.845Z,6.60
2022-08-28T06:44:14.400Z,7.10
2022-08-28T06:46:43.266Z,6.78
2022-08-28T06:49:12.597Z,6.80
2022-08-28T06:51:41.386Z,6.70
2022-08-28T06:54:10.445Z,7.10
2022-08-28T06:56:38.798Z,5.40
2022-08-28T06:59:07.035Z,4.88
2022-08-28T07:01:38.151Z,4.07
2022-08-28T07:04:08.865Z,3.50
2022-08-28T07:06:39.808Z,3.80
2022-08-28T07:09:12.213Z,3.72
2022-08-28T07:11:41.539Z,3.58
2022-08-28T07:14:10.048Z,2.90
2022-08-28T07:16:40.726Z,3.00
2022-08-28T07:19:11.335Z,3.10
2022-08-28T07:21:41.764Z,2.85
2022-08-28T07:24:11.647Z,3.10
2022-08-28T07:26:41.674Z,2.00
2022-08-28T07:29:11.578Z,1.88
2022-08-28T07:31:43.365Z,1.92
2022-08-28T07:34:13.357Z,1.88
2022-08-28T07:36:42.453Z,2.20
2022-08-28T07:39:12.004Z,2.00
2022-08-28T07:41:42.944Z,1.85
2022-08-28T07:44:29.428Z,1.83
2022-08-28T07:47:02.323Z,2.13
2022-08-28T07:49:31.477Z,2.15
2022-08-28T07:51:59.692Z,2.03
2022-08-28T07:54:28.165Z,1.90
2022-08-28T07:56:56.605Z,2.10
2022-08-28T07:59:24.882Z,2.53
2022-08-28T08:01:54.441Z,2.25
2022-08-28T08:04:25.465Z,2.42
2022-08-28T08:06:57.753Z,2.55
2022-08-28T08:09:27.138Z,2.63
2022-08-28T08:11:56.669Z,2.78
2022-08-28T08:14:25.879Z,2.90
2022-08-28T08:16:54.297Z,3.45
2022-08-28T08:19:23.966Z,2.90
2022-08-28T08:21:55.110Z,3.30
2022-08-28T08:24:26.745Z,2.55
2022-08-28T08:27:00.229Z,2.90
2022-08-28T08:29:31.997Z,3.55
2022-08-28T08:32:05.828Z,3.25
2022-08-28T08:34:38.788Z,3.30
2022-08-28T08:37:07.279Z,3.17
2022-08-28T08:39:36.700Z,3.42
2022-08-28T08:42:23.086Z,3.00
2022-08-28T08:44:53.334Z,3.00
2022-08-28T08:47:26.963Z,3.67
2022-08-28T08:50:00.111Z,3.65
2022-08-28T08:52:40.803Z,3.67
2022-08-28T08:55:18.279Z,3.50
2022-08-28T08:57:56.367Z,3.20
2022-08-28T09:00:31.096Z,3.33
2022-08-28T09:03:07.519Z,3.75
2022-08-28T09:05:50.873Z,3.15
2022-08-28T09:08:28.655Z,3.75
2022-08-28T09:11:03.413Z,3.92
2022-08-28T09:13:41.528Z,3.40
2022-08-28T09:16:22.153Z,3.47
2022-08-28T09:18:52.364Z,3.60
2022-08-28T09:21:35.906Z,3.40
2022-08-28T09:24:11.152Z,3.10
2022-08-28T09:26:41.405Z,3.30
2022-08-28T09:29:17.792Z,3.70
2022-08-28T09:31:46.104Z,3.00
2022-08-28T09:34:30.290Z,3.28
2022-08-28T09:37:01.885Z,3.25
2022-08-28T09:39:32.154Z,3.58
2022-08-28T09:42:25.026Z,3.70
2022-08-28T09:44:58.132Z,3.15
2022-08-28T09:47:49.988Z,3.28
2022-08-28T09:50:27.386Z,3.60
2022-08-28T09:52:59.294Z,3.30
2022-08-28T09:55:34.902Z,2.78
2022-08-28T09:58:05.271Z,2.78
2022-08-28T10:00:38.861Z,2.85
2022-08-28T10:03:15.703Z,2.90
2022-08-28T10:05:54.794Z,2.65
2022-08-28T10:08:48.579Z,2.60
2022-08-28T10:11:32.188Z,2.70
2022-08-28T10:14:15.051Z,2.30
2022-08-28T10:16:53.803Z,2.63
2022-08-28T10:19:38.756Z,2.95
2022-08-28T10:22:21.824Z,2.90
2022-08-28T10:25:05.084Z,2.97
2022-08-28T10:27:48.777Z,2.88
2022-08-28T10:30:21.729Z,3.10
2022-08-28T10:33:10.313Z,2.95
2022-08-28T10:35:47.908Z,2.78
2022-08-28T10:38:18.982Z,3.35
2022-08-28T10:40:56.384Z,2.90
2022-08-28T10:43:32.793Z,2.92
2022-08-28T10:46:05.070Z,2.95
2022-08-28T10:48:41.192Z,2.90
2022-08-28T10:51:17.742Z,3.10
2022-08-28T10:53:52.272Z,3.00
2022-08-28T10:56:26.045Z,2.88
2022-08-28T10:58:59.821Z,3.35
2022-08-28T11:01:31.329Z,2.90
2022-08-28T11:04:03.086Z,2.95
2022-08-28T11:06:37.099Z,3.15
2022-08-28T11:09:23.295Z,2.38
2022-08-28T11:12:01.774Z,2.85
2022-08-28T11:14:33.898Z,2.85
2022-08-28T11:17:07.164Z,2.92
2022-08-28T11:20:02.086Z,2.83
2022-08-28T11:22:37.430Z,3.15
2022-08-28T11:25:16.223Z,2.35
2022-08-28T11:28:18.966Z,2.53
2022-08-28T11:30:48.400Z,2.70
2022-08-28T11:33:38.389Z,2.92
2022-08-28T11:36:11.984Z,2.67
2022-08-28T11:39:22.914Z,2.75
2022-08-28T11:42:32.381Z,3.10
2022-08-28T11:45:02.750Z,2.47
2022-08-28T11:47:45.632Z,2.83
2022-08-28T11:50:22.033Z,2.70
2022-08-28T11:53:21.734Z,2.70
2022-08-28T11:56:16.019Z,2.38
2022-08-28T11:59:11.059Z,2.25
2022-08-28T12:01:41.106Z,2.70
2022-08-28T12:04:13.351Z,2.28
2022-08-28T12:06:51.729Z,2.40
2022-08-28T12:09:44.440Z,2.70
2022-08-28T12:12:34.540Z,2.40
2022-08-28T12:15:12.485Z,2.50
2022-08-28T12:17:58.864Z,2.45
2022-08-28T12:20:40.036Z,2.03
2022-08-28T12:23:34.803Z,2.35
2022-08-28T12:26:05.810Z,2.47
2022-08-28T12:28:45.197Z,2.20
2022-08-28T12:32:12.983Z,2.47
2022-08-28T12:34:53.714Z,2.30
2022-08-28T12:37:39.558Z,2.67
2022-08-28T12:40:23.493Z,2.50
2022-08-28T12:42:55.774Z,2.35
2022-08-28T12:45:28.134Z,2.40
2022-08-28T12:48:00.198Z,2.60
2022-08-28T12:50:33.981Z,2.83
2022-08-28T12:53:04.810Z,2.50
2022-08-28T12:55:34.370Z,2.40
2022-08-28T12:58:02.886Z,2.20
2022-08-28T13:00:37.269Z,2.63
2022-08-28T13:03:08.821Z,2.78
2022-08-28T13:05:41.242Z,2.50
2022-08-28T13:08:12.903Z,2.30
2022-08-28T13:10:48.648Z,2.75
2022-08-28T13:13:22.438Z,2.60
2022-08-28T13:15:57.260Z,2.83
2022-08-28T13:18:45.633Z,2.20
2022-08-28T13:21:32.639Z,2.28
2022-08-28T13:24:37.051Z,2.35
2022-08-28T13:27:11.917Z,3.05
2022-08-28T13:30:00.972Z,3.95
2022-08-28T13:32:33.818Z,4.13
2022-08-28T13:35:40.491Z,3.38
2022-08-28T13:38:14.146Z,3.38
2022-08-28T13:40:58.023Z,3.63
2022-08-28T13:43:45.720Z,3.47
2022-08-28T13:46:18.788Z,3.85
2022-08-28T13:48:49.927Z,3.10
2022-08-28T13:51:29.784Z,3.70
2022-08-28T13:54:33.053Z,4.20
2022-08-28T13:57:21.107Z,4.53
2022-08-28T14:00:08.659Z,3.97
2022-08-28T14:03:01.028Z,3.85
2022-08-28T14:05:32.153Z,3.72
2022-08-28T14:08:00.572Z,3.65
2022-08-28T14:10:30.406Z,3.70
2022-08-28T14:12:59.354Z,3.28
2022-08-28T14:15:27.566Z,4.28
2022-08-28T14:17:55.803Z,3.85
2022-08-28T14:20:24.046Z,3.72
2022-08-28T14:22:52.352Z,3.70
2022-08-28T14:25:20.503Z,3.65
2022-08-28T14:27:50.281Z,3.53
2022-08-28T14:30:19.349Z,3.47
2022-08-28T14:32:47.667Z,3.78
2022-08-28T14:35:15.991Z,3.70
2022-08-28T14:37:44.230Z,3.55
2022-08-28T14:40:13.851Z,3.78
2022-08-28T14:42:42.609Z,3.78
2022-08-28T14:45:13.104Z,3.90
2022-08-28T14:47:41.509Z,3.60
2022-08-28T14:50:10.939Z,3.40
2022-08-28T14:52:39.355Z,4.00
2022-08-28T14:55:08.011Z,4.00
2022-08-28T14:57:39.391Z,3.80
2022-08-28T15:00:09.277Z,4.20
2022-08-28T15:02:46.383Z,3.55
2022-08-28T15:05:15.580Z,3.67
2022-08-28T15:07:43.827Z,3.72
2022-08-28T15:10:13.618Z,3.25
2022-08-28T15:12:42.549Z,3.67
2022-08-28T15:15:11.759Z,3.65
2022-08-28T15:17:41.051Z,4.10
2022-08-28T15:20:12.488Z,3.47
2022-08-28T15:22:40.687Z,3.92
2022-08-28T15:25:09.406Z,3.28
2022-08-28T15:27:37.888Z,3.30
2022-08-28T15:30:07.240Z,3.55
2022-08-28T15:32:35.469Z,3.38
2022-08-28T15:35:05.242Z,3.17
2022-08-28T15:37:34.876Z,3.65
2022-08-28T15:40:29.202Z,3.35
2022-08-28T15:42:57.450Z,3.35
2022-08-28T15:45:27.445Z,4.05
2022-08-28T15:47:55.837Z,4.10
2022-08-28T15:50:24.167Z,3.83
2022-08-28T15:52:55.376Z,3.50
2022-08-28T15:55:27.486Z,3.83
2022-08-28T15:57:55.798Z,3.30
2022-08-28T16:00:24.401Z,3.20
2022-08-28T16:02:55.898Z,3.70
2022-08-28T16:05:27.998Z,3.50
2022-08-28T16:08:00.881Z,3.33
2022-08-28T16:10:29.333Z,3.05
2022-08-28T16:12:58.078Z,3.38
2022-08-28T16:15:26.584Z,3.10
2022-08-28T16:17:54.779Z,3.20
2022-08-28T16:20:23.003Z,3.50
2022-08-28T16:22:51.823Z,3.85
2022-08-28T16:25:21.550Z,3.50
2022-08-28T16:27:49.776Z,3.65
2022-08-28T16:30:18.723Z,3.75
2022-08-28T16:32:47.682Z,2.90
2022-08-28T16:35:16.133Z,3.20
2022-08-28T16:37:44.912Z,3.50
2022-08-28T16:40:14.962Z,3.33
2022-08-28T16:42:51.243Z,3.47
2022-08-28T16:45:20.447Z,3.60
2022-08-28T16:47:50.039Z,3.63
2022-08-28T16:50:19.856Z,3.35
2022-08-28T16:52:49.055Z,3.90
2022-08-28T16:55:17.558Z,3.35
2022-08-28T16:57:54.898Z,3.17
2022-08-28T17:00:24.882Z,3.03
2022-08-28T17:02:53.303Z,3.65
2022-08-28T17:05:23.056Z,3.70
2022-08-28T17:07:51.950Z,3.22
2022-08-28T17:10:23.361Z,3.45
2022-08-28T17:12:53.284Z,3.33
2022-08-28T17:15:22.601Z,3.67
2022-08-28T17:17:51.445Z,3.53
2022-08-28T17:20:42.740Z,3.15
2022-08-28T17:23:11.021Z,3.20
2022-08-28T17:25:39.277Z,3.17
2022-08-28T17:28:09.412Z,3.30
2022-08-28T17:30:37.813Z,3.03
2022-08-28T17:33:07.114Z,3.33
2022-08-28T17:35:40.329Z,3.00
2022-08-28T17:38:10.863Z,3.53
2022-08-28T17:40:39.538Z,3.58
2022-08-28T17:43:09.749Z,3.40
2022-08-28T17:45:39.046Z,3.78
2022-08-28T17:48:07.494Z,3.38
2022-08-28T17:50:35.769Z,3.63
2022-08-28T17:53:04.311Z,3.45
2022-08-28T17:55:33.092Z,3.33
2022-08-28T17:58:01.454Z,3.13
2022-08-28T18:00:31.434Z,3.30
2022-08-28T18:02:59.918Z,3.30
2022-08-28T18:05:28.485Z,3.28
2022-08-28T18:07:56.792Z,3.08
2022-08-28T18:10:25.227Z,3.40
2022-08-28T18:12:54.190Z,3.72
2022-08-28T18:15:22.562Z,3.05
2022-08-28T18:17:52.294Z,3.78
2022-08-28T18:20:20.994Z,3.50
2022-08-28T18:22:50.292Z,2.92
2022-08-28T18:25:32.996Z,3.22
2022-08-28T18:28:01.585Z,3.30
2022-08-28T18:30:30.532Z,2.90
2022-08-28T18:33:00.502Z,3.33
2022-08-28T18:35:31.820Z,3.47
2022-08-28T18:38:01.713Z,3.50
2022-08-28T18:40:30.290Z,3.60
2022-08-28T18:42:58.636Z,3.70
2022-08-28T18:45:27.555Z,3.63
2022-08-28T18:47:55.834Z,3.40
2022-08-28T18:50:28.501Z,3.63
2022-08-28T18:52:59.080Z,3.58
2022-08-28T18:55:31.124Z,3.63
2022-08-28T18:58:02.197Z,3.88
2022-08-28T19:00:31.534Z,4.28
2022-08-28T19:03:00.347Z,4.00
2022-08-28T19:05:30.158Z,3.78
2022-08-28T19:08:01.796Z,3.90
2022-08-28T19:10:34.720Z,4.03
2022-08-28T19:13:04.825Z,3.78
2022-08-28T19:15:34.726Z,3.63
2022-08-28T19:18:04.275Z,3.97
2022-08-28T19:20:35.561Z,3.90
2022-08-28T19:23:04.218Z,3.70
2022-08-28T19:25:32.747Z,3.60
2022-08-28T19:28:02.959Z,3.88
2022-08-28T19:30:34.106Z,4.00
2022-08-28T19:33:04.450Z,3.72
2022-08-28T19:35:34.894Z,3.97
2022-08-28T19:38:03.855Z,3.92
2022-08-28T19:40:34.053Z,4.05
2022-08-28T19:43:02.758Z,4.00
2022-08-28T19:45:34.329Z,4.22
2022-08-28T19:48:03.663Z,4.38
2022-08-28T19:50:34.899Z,4.10
2022-08-28T19:53:04.158Z,4.00
2022-08-28T19:55:34.090Z,3.50
2022-08-28T19:58:05.632Z,4.00
2022-08-28T20:00:37.177Z,4.20
2022-08-28T20:03:05.862Z,4.20
2022-08-28T20:05:42.937Z,4.50
2022-08-28T20:08:12.886Z,4.25
2022-08-28T20:10:42.823Z,4.10
2022-08-28T20:13:11.790Z,4.43
2022-08-28T20:15:43.042Z,4.32
2022-08-28T20:18:13.021Z,3.72
2022-08-28T20:20:47.971Z,3.72
2022-08-28T20:23:16.771Z,4.10
2022-08-28T20:25:48.754Z,4.20
2022-08-28T20:28:17.820Z,3.63
2022-08-28T20:30:47.147Z,4.00
2022-08-28T20:33:15.628Z,4.20
2022-08-28T20:35:45.317Z,3.57
2022-08-28T20:38:15.034Z,4.22
2022-08-28T20:40:43.633Z,4.03
2022-08-28T20:43:13.315Z,3.53
2022-08-28T20:45:42.588Z,4.17
2022-08-28T20:48:10.929Z,3.73
2022-08-28T20:50:39.142Z,4.10
2022-08-28T20:53:08.795Z,3.63
2022-08-28T20:55:38.107Z,4.17
2022-08-28T20:58:06.411Z,4.43
2022-08-28T21:00:34.800Z,3.70
2022-08-28T21:03:04.219Z,3.33
2022-08-28T21:05:32.584Z,3.53
2022-08-28T21:08:00.842Z,3.60
2022-08-28T21:10:30.490Z,3.87
2022-08-28T21:12:58.748Z,3.97
2022-08-28T21:15:26.975Z,3.87
2022-08-28T21:17:55.346Z,3.80
2022-08-28T21:20:26.246Z,3.73
2022-08-28T21:22:56.563Z,4.40
2022-08-28T21:25:25.729Z,4.07
2022-08-28T21:27:55.647Z,4.30
2022-08-28T21:30:25.464Z,4.10
2022-08-28T21:32:57.988Z,3.80
2022-08-28T21:35:26.225Z,4.20
2022-08-28T21:37:54.474Z,3.63
2022-08-28T21:40:22.996Z,4.03
2022-08-28T21:42:52.659Z,4.30
2022-08-28T21:45:22.541Z,4.17
2022-08-28T21:47:50.917Z,4.20
2022-08-28T21:50:19.381Z,4.10
2022-08-28T21:52:47.929Z,3.83
2022-08-28T21:55:17.552Z,4.13
2022-08-28T21:57:45.796Z,3.97
2022-08-28T22:00:19.017Z,4.03
2022-08-28T22:02:49.295Z,3.90
2022-08-28T22:05:18.122Z,4.07
2022-08-28T22:07:46.376Z,3.60
2022-08-28T22:10:16.192Z,4.00
2022-08-28T22:12:44.461Z,3.93
2022-08-28T22:15:13.774Z,3.80
2022-08-28T22:17:42.045Z,4.13
2022-08-28T22:20:12.521Z,3.73
2022-08-28T22:22:58.270Z,4.20
2022-08-28T22:25:26.770Z,4.13
2022-08-28T22:27:55.099Z,4.60
2022-08-28T22:30:24.179Z,4.47
2022-08-28T22:32:52.560Z,4.23
2022-08-28T22:35:22.381Z,3.90
2022-08-28T22:37:50.655Z,3.30
2022-08-28T22:40:21.793Z,4.10
2022-08-28T22:42:52.542Z,4.27
2022-08-28T22:45:21.764Z,4.43
2022-08-28T22:47:51.913Z,4.63
2022-08-28T22:50:22.029Z,4.27
2022-08-28T22:52:51.056Z,4.20
2022-08-28T22:55:21.361Z,4.00
2022-08-28T22:57:51.842Z,4.20
2022-08-28T23:00:26.019Z,3.83
2022-08-28T23:02:56.056Z,3.90
2022-08-28T23:05:27.299Z,4.80
2022-08-28T23:07:56.142Z,4.60
2022-08-28T23:10:42.068Z,4.70
2022-08-28T23:13:14.461Z,4.40
2022-08-28T23:15:43.975Z,4.43
2022-08-28T23:18:12.674Z,4.30
2022-08-28T23:20:42.806Z,4.40
2022-08-28T23:23:11.635Z,4.10
2022-08-28T23:25:39.991Z,4.40
2022-08-28T23:28:09.241Z,4.50
2022-08-28T23:30:39.003Z,4.40
2022-08-28T23:33:08.299Z,4.47
2022-08-28T23:35:37.588Z,4.27
2022-08-28T23:38:07.350Z,4.77
2022-08-28T23:40:37.446Z,4.40
2022-08-28T23:43:06.364Z,4.00
2022-08-28T23:45:35.465Z,4.40
2022-08-28T23:48:04.099Z,4.20
2022-08-28T23:50:33.568Z,4.97
2022-08-28T23:53:03.139Z,4.47
2022-08-28T23:55:35.006Z,4.63
2022-08-28T23:58:05.971Z,4.00
